DEMFK EDDS-LSZR
Flight info
| Callsign | DEMFK |
|---|---|
| Flight time | 0h 38m |
| Altitude | 5000 |
| Route | VFR DIRECT LSZR |
| Aircraft | C172/L-SFG/C |
Departure
| Time | 2026-05-04 17:00 |
|---|---|
| Airport | Stuttgart Airport (EDDS) |
Arrival
| Time | 2026-05-04 17:38 |
|---|---|
| Airport | Sankt Gallen Altenrhein Airport (LSZR) |
| Time | Latitude | Longitude | Altitude | Speed | Heading |
|---|---|---|---|---|---|
| 2026-05-04 16:35 | 48.69174 | 9.21357 | 1259 ft | 0 kts | 223° |
| 2026-05-04 16:53 | 48.69172 | 9.21354 | 1259 ft | 3 kts | 223° |
| 2026-05-04 16:54 | 48.69150 | 9.21304 | 1261 ft | 5 kts | 252° |
| 2026-05-04 16:55 | 48.68955 | 9.21461 | 1253 ft | 11 kts | 164° |
| 2026-05-04 16:55 | 48.68936 | 9.21470 | 1249 ft | 0 kts | 163° |
| 2026-05-04 16:57 | 48.68866 | 9.21548 | 1247 ft | 12 kts | 90° |
| 2026-05-04 16:58 | 48.68870 | 9.21576 | 1246 ft | 0 kts | 75° |
| 2026-05-04 16:59 | 48.69027 | 9.22394 | 1296 ft | 77 kts | 74° |
| 2026-05-04 17:00 | 48.67515 | 9.25258 | 2084 ft | 97 kts | 142° |
| 2026-05-04 17:00 | 48.66071 | 9.27281 | 2819 ft | 93 kts | 139° |
| 2026-05-04 17:01 | 48.65152 | 9.28574 | 3306 ft | 88 kts | 138° |
| 2026-05-04 17:01 | 48.64263 | 9.29829 | 3796 ft | 86 kts | 138° |
| 2026-05-04 17:02 | 48.63333 | 9.31132 | 4146 ft | 96 kts | 139° |
| 2026-05-04 17:02 | 48.62154 | 9.32157 | 4465 ft | 102 kts | 162° |
| 2026-05-04 17:03 | 48.61475 | 9.32494 | 4621 ft | 104 kts | 163° |
| 2026-05-04 17:03 | 48.60782 | 9.32834 | 4778 ft | 105 kts | 163° |
| 2026-05-04 17:03 | 48.59384 | 9.33515 | 5041 ft | 108 kts | 164° |
| 2026-05-04 17:04 | 48.57847 | 9.34256 | 5057 ft | 121 kts | 164° |
| 2026-05-04 17:04 | 48.56224 | 9.35035 | 5055 ft | 124 kts | 164° |
| 2026-05-04 17:05 | 48.54569 | 9.35828 | 5055 ft | 125 kts | 163° |
| 2026-05-04 17:05 | 48.52909 | 9.36624 | 5057 ft | 125 kts | 164° |
| 2026-05-04 17:06 | 48.51244 | 9.37421 | 5056 ft | 126 kts | 164° |
| 2026-05-04 17:06 | 48.50406 | 9.37822 | 5060 ft | 127 kts | 164° |
| 2026-05-04 17:07 | 48.48731 | 9.38623 | 5051 ft | 126 kts | 164° |
| 2026-05-04 17:07 | 48.48177 | 9.38889 | 5051 ft | 125 kts | 164° |
| 2026-05-04 17:07 | 48.47066 | 9.39421 | 5051 ft | 125 kts | 163° |
| 2026-05-04 17:07 | 48.46236 | 9.39819 | 5055 ft | 126 kts | 164° |
| 2026-05-04 17:08 | 48.45410 | 9.40213 | 5055 ft | 126 kts | 164° |
| 2026-05-04 17:08 | 48.43733 | 9.41018 | 5045 ft | 126 kts | 164° |
| 2026-05-04 17:08 | 48.42904 | 9.41415 | 5053 ft | 125 kts | 163° |
| 2026-05-04 17:09 | 48.42075 | 9.41811 | 5048 ft | 125 kts | 164° |
| 2026-05-04 17:09 | 48.41258 | 9.42203 | 5047 ft | 124 kts | 164° |
| 2026-05-04 17:09 | 48.40431 | 9.42598 | 5050 ft | 125 kts | 164° |
| 2026-05-04 17:10 | 48.38769 | 9.43392 | 5052 ft | 125 kts | 164° |
| 2026-05-04 17:10 | 48.36200 | 9.43605 | 5056 ft | 124 kts | 184° |
| 2026-05-04 17:11 | 48.35332 | 9.43553 | 5057 ft | 125 kts | 184° |
| 2026-05-04 17:11 | 48.34464 | 9.43499 | 5058 ft | 125 kts | 184° |
| 2026-05-04 17:11 | 48.32727 | 9.43395 | 5055 ft | 125 kts | 184° |
| 2026-05-04 17:12 | 48.31854 | 9.43342 | 5055 ft | 126 kts | 184° |
| 2026-05-04 17:12 | 48.30106 | 9.43236 | 5054 ft | 125 kts | 184° |
| 2026-05-04 17:13 | 48.27515 | 9.43079 | 5050 ft | 124 kts | 184° |
| 2026-05-04 17:14 | 48.24926 | 9.42922 | 5050 ft | 124 kts | 184° |
| 2026-05-04 17:14 | 48.24063 | 9.42869 | 5052 ft | 124 kts | 184° |
| 2026-05-04 17:14 | 48.22331 | 9.42765 | 5052 ft | 125 kts | 184° |
| 2026-05-04 17:15 | 48.21461 | 9.42711 | 5046 ft | 125 kts | 184° |
| 2026-05-04 17:15 | 48.19723 | 9.42607 | 5049 ft | 125 kts | 184° |
| 2026-05-04 17:16 | 48.17999 | 9.42503 | 5050 ft | 125 kts | 184° |
| 2026-05-04 17:16 | 48.15400 | 9.42349 | 5050 ft | 124 kts | 184° |
| 2026-05-04 17:17 | 48.14535 | 9.42297 | 5049 ft | 124 kts | 184° |
| 2026-05-04 17:17 | 48.11936 | 9.42141 | 5050 ft | 125 kts | 184° |
| 2026-05-04 17:18 | 48.11066 | 9.42088 | 5048 ft | 125 kts | 184° |
| 2026-05-04 17:18 | 48.09330 | 9.41984 | 5051 ft | 125 kts | 184° |
| 2026-05-04 17:19 | 48.07598 | 9.41879 | 5050 ft | 125 kts | 184° |
| 2026-05-04 17:19 | 48.05845 | 9.41775 | 5049 ft | 125 kts | 184° |
| 2026-05-04 17:20 | 48.04119 | 9.41671 | 5047 ft | 124 kts | 184° |
| 2026-05-04 17:20 | 48.02392 | 9.41568 | 5048 ft | 125 kts | 184° |
| 2026-05-04 17:20 | 48.01524 | 9.41515 | 5047 ft | 125 kts | 184° |
| 2026-05-04 17:21 | 47.99788 | 9.41411 | 5047 ft | 124 kts | 184° |
| 2026-05-04 17:21 | 47.98060 | 9.41306 | 5044 ft | 125 kts | 184° |
| 2026-05-04 17:22 | 47.97189 | 9.41256 | 5041 ft | 125 kts | 184° |
| 2026-05-04 17:22 | 47.96319 | 9.41203 | 5043 ft | 125 kts | 184° |
| 2026-05-04 17:23 | 47.93711 | 9.41049 | 5047 ft | 125 kts | 184° |
| 2026-05-04 17:23 | 47.92839 | 9.40998 | 5047 ft | 125 kts | 184° |
| 2026-05-04 17:23 | 47.91112 | 9.40896 | 5045 ft | 124 kts | 184° |
| 2026-05-04 17:24 | 47.90248 | 9.40844 | 5045 ft | 124 kts | 184° |
| 2026-05-04 17:24 | 47.87653 | 9.40689 | 5044 ft | 124 kts | 184° |
| 2026-05-04 17:25 | 47.86787 | 9.40637 | 5046 ft | 125 kts | 184° |
| 2026-05-04 17:25 | 47.85054 | 9.40535 | 5043 ft | 124 kts | 184° |
| 2026-05-04 17:26 | 47.83321 | 9.40433 | 5044 ft | 124 kts | 184° |
| 2026-05-04 17:26 | 47.80736 | 9.40281 | 5040 ft | 124 kts | 184° |
| 2026-05-04 17:27 | 47.79004 | 9.40179 | 5044 ft | 125 kts | 184° |
| 2026-05-04 17:27 | 47.77268 | 9.40076 | 5044 ft | 125 kts | 184° |
| 2026-05-04 17:28 | 47.75535 | 9.39976 | 5042 ft | 124 kts | 184° |
| 2026-05-04 17:29 | 47.72938 | 9.40154 | 5039 ft | 125 kts | 174° |
| 2026-05-04 17:29 | 47.70362 | 9.40673 | 5039 ft | 125 kts | 174° |
| 2026-05-04 17:30 | 47.67776 | 9.41194 | 5041 ft | 125 kts | 174° |
| 2026-05-04 17:31 | 47.66051 | 9.41541 | 5040 ft | 125 kts | 174° |
| 2026-05-04 17:31 | 47.63466 | 9.42060 | 5039 ft | 125 kts | 174° |
| 2026-05-04 17:32 | 47.61743 | 9.42407 | 5040 ft | 125 kts | 174° |
| 2026-05-04 17:33 | 47.59169 | 9.42923 | 5039 ft | 125 kts | 174° |
| 2026-05-04 17:33 | 47.58307 | 9.43095 | 5042 ft | 125 kts | 174° |
| 2026-05-04 17:34 | 47.56150 | 9.44581 | 4857 ft | 133 kts | 154° |
| 2026-05-04 17:34 | 47.55331 | 9.45213 | 4714 ft | 133 kts | 154° |
| 2026-05-04 17:35 | 47.52867 | 9.47103 | 4025 ft | 128 kts | 154° |
| 2026-05-04 17:35 | 47.51306 | 9.48282 | 3130 ft | 124 kts | 156° |
| 2026-05-04 17:35 | 47.50516 | 9.48781 | 2703 ft | 122 kts | 157° |
| 2026-05-04 17:36 | 47.49908 | 9.49608 | 2372 ft | 121 kts | 133° |
| 2026-05-04 17:36 | 47.49321 | 9.50502 | 2039 ft | 122 kts | 134° |
| 2026-05-04 17:36 | 47.48956 | 9.51583 | 1801 ft | 118 kts | 102° |
| 2026-05-04 17:36 | 47.48828 | 9.52673 | 1668 ft | 95 kts | 100° |
| 2026-05-04 17:37 | 47.48757 | 9.53484 | 1549 ft | 70 kts | 99° |
| 2026-05-04 17:37 | 47.48690 | 9.54152 | 1456 ft | 65 kts | 95° |
| 2026-05-04 17:37 | 47.48634 | 9.54814 | 1373 ft | 65 kts | 99° |
| 2026-05-04 17:37 | 47.48571 | 9.55421 | 1316 ft | 53 kts | 99° |
| 2026-05-04 17:38 | 47.48527 | 9.55846 | 1314 ft | 33 kts | 99° |
| 2026-05-04 17:38 | 47.48494 | 9.56172 | 1310 ft | 35 kts | 98° |
| 2026-05-04 17:38 | 47.48447 | 9.56594 | 1309 ft | 44 kts | 100° |
| 2026-05-04 17:38 | 47.48409 | 9.56995 | 1311 ft | 23 kts | 85° |
| 2026-05-04 17:39 | 47.48555 | 9.57041 | 1310 ft | 17 kts | 284° |
| 2026-05-04 17:39 | 47.48582 | 9.56802 | 1310 ft | 26 kts | 279° |
| 2026-05-04 17:39 | 47.48609 | 9.56526 | 1310 ft | 31 kts | 278° |
| 2026-05-04 17:40 | 47.48647 | 9.56188 | 1310 ft | 33 kts | 278° |
| 2026-05-04 17:40 | 47.48678 | 9.55892 | 1310 ft | 26 kts | 279° |
| 2026-05-04 17:40 | 47.48704 | 9.55646 | 1310 ft | 24 kts | 279° |
| 2026-05-04 17:40 | 47.48718 | 9.55499 | 1310 ft | 0 kts | 277° |
| 2026-05-04 17:41 | 47.48720 | 9.55493 | 1310 ft | 4 kts | 326° |
| 2026-05-04 17:41 | 47.48760 | 9.55470 | 1310 ft | 7 kts | 273° |
| 2026-05-04 17:41 | 47.48755 | 9.55431 | 1310 ft | 2 kts | 188° |
| 2026-05-04 17:41 | 47.48747 | 9.55430 | 1310 ft | 0 kts | 181° |